Time;durP1;ratioP1;P1;durP2;ratioP2;P2;SDS_P1;SDS_P2;PMS_P1;PMS_P2;Temp;Humidity;BMP_temperature;BMP_pressure;BME280_temperature;BME280_humidity;BME280_pressure;Samples;Min_cycle;Max_cycle;Signal;HPM_P1;HPM_P2
2023/02/22 00:00:21;;;;;;;;;72.67;59.00;;;;;;;;4999545;28;8858;-76
2023/02/22 00:02:49;;;;;;;;;71.00;55.00;;;;;;;;4999274;28;8924;-76
2023/02/22 00:05:18;;;;;;;;;73.67;61.00;;;;;;;;4999070;28;8855;-76
2023/02/22 00:07:47;;;;;;;;;67.33;57.00;;;;;;;;4995346;28;8981;-76
2023/02/22 00:10:19;;;;;;;;;74.00;60.00;;;;;;;;4997466;28;8881;-76
2023/02/22 00:12:48;;;;;;;;;68.33;54.00;;;;;;;;4998006;28;8890;-76
2023/02/22 00:15:18;;;;;;;;;44.33;37.33;;;;;;;;4997065;28;8847;-76
2023/02/22 00:17:46;;;;;;;;;69.67;56.33;;;;;;;;4998186;28;8874;-76
2023/02/22 00:20:16;;;;;;;;;79.33;63.00;;;;;;;;4998684;28;8855;-76
2023/02/22 00:22:45;;;;;;;;;78.67;62.33;;;;;;;;4998177;28;8850;-76
2023/02/22 00:25:13;;;;;;;;;75.00;59.33;;;;;;;;4999529;28;8851;-76
2023/02/22 00:27:41;;;;;;;;;76.67;59.33;;;;;;;;4997540;28;8873;-76
2023/02/22 00:30:11;;;;;;;;;79.33;63.67;;;;;;;;4998392;28;8976;-75
2023/02/22 00:32:40;;;;;;;;;78.67;62.33;;;;;;;;4996817;28;8917;-75
2023/02/22 00:35:08;;;;;;;;;78.67;64.00;;;;;;;;4979580;28;8863;-76
2023/02/22 00:37:36;;;;;;;;;77.33;62.00;;;;;;;;4997700;28;8936;-76
2023/02/22 00:40:07;;;;;;;;;77.33;61.00;;;;;;;;4996083;28;8893;-76
2023/02/22 00:42:35;;;;;;;;;80.67;64.00;;;;;;;;4996334;28;8893;-76
2023/02/22 00:45:02;;;;;;;;;86.33;70.00;;;;;;;;4982164;28;8874;-75
2023/02/22 00:47:30;;;;;;;;;78.00;62.67;;;;;;;;4996740;28;8985;-76
2023/02/22 00:50:00;;;;;;;;;82.33;64.33;;;;;;;;4999029;28;8965;-76
2023/02/22 00:52:27;;;;;;;;;85.67;68.00;;;;;;;;5002221;28;8842;-76
2023/02/22 00:54:55;;;;;;;;;86.67;67.00;;;;;;;;5001557;28;8866;-76
2023/02/22 00:57:23;;;;;;;;;78.33;61.00;;;;;;;;5001181;28;8873;-77
2023/02/22 00:59:51;;;;;;;;;78.00;61.67;;;;;;;;5002433;28;8978;-76
2023/02/22 01:02:18;;;;;;;;;80.67;62.67;;;;;;;;5001580;28;8815;-76
2023/02/22 01:04:46;;;;;;;;;88.33;69.67;;;;;;;;5002678;28;8866;-76
2023/02/22 01:07:15;;;;;;;;;85.00;69.00;;;;;;;;5001583;28;9684;-76
2023/02/22 01:09:43;;;;;;;;;83.33;63.33;;;;;;;;5002423;28;8889;-76
2023/02/22 01:12:12;;;;;;;;;88.33;64.67;;;;;;;;5001489;28;9019;-76
2023/02/22 01:14:39;;;;;;;;;90.67;74.33;;;;;;;;5000257;28;9068;-76
2023/02/22 01:17:07;;;;;;;;;85.33;64.00;;;;;;;;5001807;28;8883;-75
2023/02/22 01:19:34;;;;;;;;;76.00;61.00;;;;;;;;4999278;28;8948;-75
2023/02/22 01:22:01;;;;;;;;;87.00;71.00;;;;;;;;5001213;28;8839;-76
2023/02/22 01:24:31;;;;;;;;;85.00;66.00;;;;;;;;5000403;28;8874;-76
2023/02/22 01:26:59;;;;;;;;;85.33;65.67;;;;;;;;5001037;28;8862;-76
2023/02/22 01:29:26;;;;;;;;;88.00;76.33;;;;;;;;4998609;28;8870;-76
2023/02/22 01:31:55;;;;;;;;;103.33;96.33;;;;;;;;4998561;28;9617;-75
2023/02/22 01:34:24;;;;;;;;;90.00;71.67;;;;;;;;4992722;28;8863;-76
2023/02/22 01:36:52;;;;;;;;;91.00;77.67;;;;;;;;4981987;28;8917;-76
2023/02/22 01:39:19;;;;;;;;;91.00;79.33;;;;;;;;4997024;28;8871;-76
2023/02/22 01:41:48;;;;;;;;;89.33;70.00;;;;;;;;4999782;28;9736;-76
2023/02/22 01:44:20;;;;;;;;;90.33;73.67;;;;;;;;4998021;28;8883;-77
2023/02/22 01:46:48;;;;;;;;;94.67;83.33;;;;;;;;5002569;28;8880;-76
2023/02/22 01:49:15;;;;;;;;;93.67;81.33;;;;;;;;4998688;28;8851;-76
2023/02/22 01:51:46;;;;;;;;;90.00;74.00;;;;;;;;4999829;28;8933;-76
2023/02/22 01:54:17;;;;;;;;;88.67;73.67;;;;;;;;4981254;28;8863;-76
2023/02/22 01:56:51;;;;;;;;;92.67;71.00;;;;;;;;5000058;28;9246;-77
2023/02/22 01:59:19;;;;;;;;;89.67;74.00;;;;;;;;4999635;28;8964;-76
2023/02/22 02:01:47;;;;;;;;;90.33;78.67;;;;;;;;4983881;28;8826;-76
2023/02/22 02:04:17;;;;;;;;;95.00;81.67;;;;;;;;4979904;28;8865;-77
2023/02/22 02:06:46;;;;;;;;;88.33;74.67;;;;;;;;4980100;28;8853;-76
2023/02/22 02:09:20;;;;;;;;;91.33;76.33;;;;;;;;4981613;28;8875;-76
2023/02/22 02:11:50;;;;;;;;;95.00;83.67;;;;;;;;4977752;28;8869;-77
2023/02/22 02:14:18;;;;;;;;;86.00;74.67;;;;;;;;4978742;28;8873;-76
2023/02/22 02:16:47;;;;;;;;;84.33;65.67;;;;;;;;4981056;28;8880;-76
2023/02/22 02:19:24;;;;;;;;;95.00;89.00;;;;;;;;4980714;28;8872;-77
2023/02/22 02:22:24;;;;;;;;;95.00;86.00;;;;;;;;4979804;28;8873;-77
2023/02/22 02:25:31;;;;;;;;;92.00;78.67;;;;;;;;4945795;28;8955;-77
2023/02/22 02:28:33;;;;;;;;;89.33;66.67;;;;;;;;4981234;28;8845;-76
2023/02/22 02:31:37;;;;;;;;;85.67;73.00;;;;;;;;4974965;28;8818;-75
2023/02/22 02:34:09;;;;;;;;;89.33;75.67;;;;;;;;4985056;28;8870;-76
2023/02/22 02:36:44;;;;;;;;;91.67;74.00;;;;;;;;4983081;28;8877;-76
2023/02/22 02:39:18;;;;;;;;;93.67;82.33;;;;;;;;4983524;28;8883;-76
2023/02/22 02:41:49;;;;;;;;;96.00;80.00;;;;;;;;4980091;28;9683;-76
2023/02/22 02:44:23;;;;;;;;;90.00;74.33;;;;;;;;4986693;28;8891;-76
2023/02/22 02:46:54;;;;;;;;;91.00;75.33;;;;;;;;4986158;28;9691;-76
2023/02/22 02:49:29;;;;;;;;;84.33;67.67;;;;;;;;4987323;28;8873;-76
2023/02/22 02:51:57;;;;;;;;;90.00;71.67;;;;;;;;4985643;28;8989;-77
2023/02/22 02:54:26;;;;;;;;;84.67;66.33;;;;;;;;4984154;28;8866;-76
2023/02/22 02:56:53;;;;;;;;;66.00;52.00;;;;;;;;4988282;28;8921;-75
2023/02/22 02:59:25;;;;;;;;;74.00;58.00;;;;;;;;4988739;28;8873;-75
2023/02/22 03:02:02;;;;;;;;;76.33;61.33;;;;;;;;4978409;28;11631;-75
2023/02/22 03:04:42;;;;;;;;;75.00;57.67;;;;;;;;4982569;28;8940;-76
2023/02/22 03:07:23;;;;;;;;;76.33;59.67;;;;;;;;4984995;28;11642;-76
2023/02/22 03:09:59;;;;;;;;;75.67;58.00;;;;;;;;4982296;28;12517;-76
2023/02/22 03:12:39;;;;;;;;;74.67;59.00;;;;;;;;4980782;28;11660;-76
2023/02/22 03:15:16;;;;;;;;;69.00;55.50;;;;;;;;5013699;28;11769;-77
2023/02/22 03:17:51;;;;;;;;;72.00;57.50;;;;;;;;4982178;28;11691;-76
2023/02/22 03:20:30;;;;;;;;;73.75;58.50;;;;;;;;4982192;28;11641;-77
2023/02/22 03:23:01;;;;;;;;;75.00;59.00;;;;;;;;4981786;28;11635;-76
2023/02/22 03:25:34;;;;;;;;;67.75;53.25;;;;;;;;4982715;28;11690;-77
2023/02/22 03:28:04;;;;;;;;;70.25;56.50;;;;;;;;4982389;28;11639;-77
2023/02/22 03:30:36;;;;;;;;;73.00;55.75;;;;;;;;4983708;28;11692;-77
2023/02/22 03:33:08;;;;;;;;;67.50;55.25;;;;;;;;4981277;28;11676;-77
2023/02/22 03:35:41;;;;;;;;;69.25;57.00;;;;;;;;4982056;28;12511;-77
2023/02/22 03:38:11;;;;;;;;;66.25;53.50;;;;;;;;4981312;28;11640;-77
2023/02/22 03:40:43;;;;;;;;;70.25;55.50;;;;;;;;4978167;28;11734;-76
2023/02/22 03:43:13;;;;;;;;;71.25;55.00;;;;;;;;4982915;28;11683;-76
2023/02/22 03:45:42;;;;;;;;;71.50;57.75;;;;;;;;4979378;28;11662;-76
2023/02/22 03:48:16;;;;;;;;;75.33;60.67;;;;;;;;4955588;28;11790;-80
2023/02/22 03:50:46;;;;;;;;;71.33;58.00;;;;;;;;4981863;28;8885;-76
2023/02/22 03:53:13;;;;;;;;;74.00;60.00;;;;;;;;4982146;28;11639;-76
2023/02/22 03:55:41;;;;;;;;;72.75;57.50;;;;;;;;4983550;28;11669;-76
2023/02/22 03:58:12;;;;;;;;;64.50;53.00;;;;;;;;4994818;28;11666;-76
2023/02/22 04:00:43;;;;;;;;;63.75;52.00;;;;;;;;4982129;28;11582;-77
2023/02/22 04:03:11;;;;;;;;;69.75;53.25;;;;;;;;4982311;28;12494;-75
2023/02/22 04:05:38;;;;;;;;;67.00;52.50;;;;;;;;4982786;28;11668;-76
2023/02/22 04:08:07;;;;;;;;;64.50;51.50;;;;;;;;4980026;28;11724;-76
2023/02/22 04:10:36;;;;;;;;;61.50;48.50;;;;;;;;4984091;28;11783;-76
2023/02/22 04:13:06;;;;;;;;;61.75;47.75;;;;;;;;4981278;28;11665;-76
2023/02/22 04:15:34;;;;;;;;;49.00;43.75;;;;;;;;4980380;28;12357;-77
2023/02/22 04:18:02;;;;;;;;;63.25;51.50;;;;;;;;4981869;28;11651;-76
2023/02/22 04:20:30;;;;;;;;;59.75;47.00;;;;;;;;4981061;28;11619;-76
2023/02/22 04:22:58;;;;;;;;;60.75;48.00;;;;;;;;4980244;28;11643;-76
2023/02/22 04:25:27;;;;;;;;;61.50;48.75;;;;;;;;4979223;28;11635;-76
2023/02/22 04:27:54;;;;;;;;;51.75;42.75;;;;;;;;4980489;28;11694;-76
2023/02/22 04:30:22;;;;;;;;;54.25;43.75;;;;;;;;4982769;28;11632;-76
2023/02/22 04:32:49;;;;;;;;;56.50;45.50;;;;;;;;4985058;28;11643;-74
2023/02/22 04:35:17;;;;;;;;;49.50;41.25;;;;;;;;4986287;28;11611;-77
2023/02/22 04:37:44;;;;;;;;;53.25;45.00;;;;;;;;4982513;28;11614;-76
2023/02/22 04:40:12;;;;;;;;;54.75;45.75;;;;;;;;4987389;28;11673;-76
2023/02/22 04:42:41;;;;;;;;;52.00;43.50;;;;;;;;4978711;28;11661;-76
2023/02/22 04:45:09;;;;;;;;;49.75;42.75;;;;;;;;4988809;28;11629;-76
2023/02/22 04:47:37;;;;;;;;;53.00;43.00;;;;;;;;4984200;28;11686;-76
2023/02/22 04:50:06;;;;;;;;;50.00;42.25;;;;;;;;4984130;28;11639;-77
2023/02/22 04:52:33;;;;;;;;;53.50;43.50;;;;;;;;4983400;28;11622;-75
2023/02/22 04:55:02;;;;;;;;;15.75;12.75;;;;;;;;4986263;28;11637;-77
2023/02/22 04:57:29;;;;;;;;;54.75;45.50;;;;;;;;4980664;28;12343;-76
2023/02/22 04:59:58;;;;;;;;;50.75;41.25;;;;;;;;4985389;28;11687;-76
2023/02/22 05:02:26;;;;;;;;;39.00;36.50;;;;;;;;4995162;28;11619;-77
2023/02/22 05:04:53;;;;;;;;;50.00;43.25;;;;;;;;4994854;28;11623;-77
2023/02/22 05:07:22;;;;;;;;;46.50;40.75;;;;;;;;5006054;28;11650;-77
2023/02/22 05:09:49;;;;;;;;;49.00;38.25;;;;;;;;4995064;28;11696;-79
2023/02/22 05:12:17;;;;;;;;;45.25;39.25;;;;;;;;4993806;28;11621;-79
2023/02/22 05:14:44;;;;;;;;;42.00;38.00;;;;;;;;4994932;28;13019;-79
2023/02/22 05:17:13;;;;;;;;;46.50;40.50;;;;;;;;4992955;28;11632;-79
2023/02/22 05:19:41;;;;;;;;;51.75;42.50;;;;;;;;4995402;28;11601;-81
2023/02/22 05:22:08;;;;;;;;;60.00;46.75;;;;;;;;4994821;28;11636;-78
2023/02/22 05:24:36;;;;;;;;;45.75;41.75;;;;;;;;4993272;28;11686;-77
2023/02/22 05:27:03;;;;;;;;;47.00;42.50;;;;;;;;4991457;28;11750;-77
2023/02/22 05:29:31;;;;;;;;;45.25;37.75;;;;;;;;4995058;28;11643;-77
2023/02/22 05:31:58;;;;;;;;;41.75;39.50;;;;;;;;4978218;28;11603;-78
2023/02/22 05:34:27;;;;;;;;;45.75;40.25;;;;;;;;4976172;28;12515;-77
2023/02/22 05:36:54;;;;;;;;;38.50;35.25;;;;;;;;4977593;28;11632;-76
2023/02/22 05:39:22;;;;;;;;;42.25;38.00;;;;;;;;4981128;28;11626;-76
2023/02/22 05:41:49;;;;;;;;;36.25;34.50;;;;;;;;4980112;28;11619;-77
2023/02/22 05:44:17;;;;;;;;;40.00;37.25;;;;;;;;4977299;28;11702;-78
2023/02/22 05:46:44;;;;;;;;;37.50;37.00;;;;;;;;4979368;28;11630;-77
2023/02/22 05:49:11;;;;;;;;;38.75;34.00;;;;;;;;4977905;28;12420;-77
2023/02/22 05:51:40;;;;;;;;;44.25;38.50;;;;;;;;4978206;28;11651;-77
2023/02/22 05:54:08;;;;;;;;;46.50;41.00;;;;;;;;4980049;28;11703;-74
2023/02/22 05:56:35;;;;;;;;;42.75;39.75;;;;;;;;4978628;28;11646;-73
2023/02/22 05:59:03;;;;;;;;;47.25;38.75;;;;;;;;4980577;28;11771;-72
2023/02/22 06:01:30;;;;;;;;;24.50;17.25;;;;;;;;4975546;28;11599;-73
2023/02/22 06:03:58;;;;;;;;;44.50;39.50;;;;;;;;4978114;28;11629;-73
2023/02/22 06:06:25;;;;;;;;;44.75;39.00;;;;;;;;4976766;28;11680;-73
2023/02/22 06:08:54;;;;;;;;;42.25;40.00;;;;;;;;4980421;28;11611;-72
2023/02/22 06:11:21;;;;;;;;;41.50;35.25;;;;;;;;4976438;28;11761;-73
2023/02/22 06:13:52;;;;;;;;;49.00;39.25;;;;;;;;4978892;28;11582;-73
2023/02/22 06:16:21;;;;;;;;;49.75;41.00;;;;;;;;4978309;28;11643;-73
2023/02/22 06:18:48;;;;;;;;;46.25;38.50;;;;;;;;4977435;28;11828;-74
2023/02/22 06:21:16;;;;;;;;;46.50;39.50;;;;;;;;4978470;28;12449;-76
2023/02/22 06:23:43;;;;;;;;;40.00;33.25;;;;;;;;4979318;28;11806;-76
2023/02/22 06:26:12;;;;;;;;;41.50;39.00;;;;;;;;4980345;28;11614;-74
2023/02/22 06:28:39;;;;;;;;;48.25;40.50;;;;;;;;4977431;28;11648;-74
2023/02/22 06:31:06;;;;;;;;;49.75;43.00;;;;;;;;4979599;28;11572;-75
2023/02/22 06:33:34;;;;;;;;;40.50;38.50;;;;;;;;4978960;28;13125;-73
2023/02/22 06:36:01;;;;;;;;;38.75;37.00;;;;;;;;4975196;28;12449;-72
2023/02/22 06:38:29;;;;;;;;;50.00;42.25;;;;;;;;4976271;28;11626;-71
2023/02/22 06:40:56;;;;;;;;;49.00;39.75;;;;;;;;4972951;28;11701;-72
2023/02/22 06:43:25;;;;;;;;;45.25;39.75;;;;;;;;4969444;28;11627;-72
2023/02/22 06:45:53;;;;;;;;;45.00;40.00;;;;;;;;4976233;28;12486;-73
2023/02/22 06:48:20;;;;;;;;;61.67;53.00;;;;;;;;4975635;28;12544;-72
2023/02/22 06:50:48;;;;;;;;;55.00;43.00;;;;;;;;4973447;28;11661;-72
2023/02/22 06:53:15;;;;;;;;;47.00;42.25;;;;;;;;4977097;28;11623;-72
2023/02/22 06:55:42;;;;;;;;;50.00;44.00;;;;;;;;4975346;28;12457;-72
2023/02/22 06:58:10;;;;;;;;;55.50;44.25;;;;;;;;4979525;28;11614;-73
2023/02/22 07:00:39;;;;;;;;;45.50;40.75;;;;;;;;4979227;28;11703;-73
2023/02/22 07:03:06;;;;;;;;;50.00;43.25;;;;;;;;4976848;28;11611;-73
2023/02/22 07:05:33;;;;;;;;;54.50;44.75;;;;;;;;4974831;28;11639;-72
2023/02/22 07:08:05;;;;;;;;;55.00;45.00;;;;;;;;4974558;28;11639;-73
2023/02/22 07:10:35;;;;;;;;;56.75;45.75;;;;;;;;5005717;28;11640;-72
2023/02/22 07:13:03;;;;;;;;;52.00;43.00;;;;;;;;4972962;28;11683;-72
2023/02/22 07:15:32;;;;;;;;;58.25;46.00;;;;;;;;4972468;28;11719;-72
2023/02/22 07:18:01;;;;;;;;;45.00;40.00;;;;;;;;4975721;28;11644;-73
2023/02/22 07:20:30;;;;;;;;;46.75;43.25;;;;;;;;4971858;28;12937;-71
2023/02/22 07:22:57;;;;;;;;;50.50;41.50;;;;;;;;4975034;28;12484;-70
2023/02/22 07:25:24;;;;;;;;;57.25;45.50;;;;;;;;4977288;28;11625;-71
2023/02/22 07:27:52;;;;;;;;;52.25;43.00;;;;;;;;4976436;28;11658;-71
2023/02/22 07:30:23;;;;;;;;;51.75;44.00;;;;;;;;4975229;28;11671;-72
2023/02/22 07:32:51;;;;;;;;;57.75;46.00;;;;;;;;4983155;28;11748;-72
2023/02/22 07:35:22;;;;;;;;;52.50;45.75;;;;;;;;4990040;28;11655;-71
2023/02/22 07:37:51;;;;;;;;;57.25;47.25;;;;;;;;4979697;28;11682;-71
2023/02/22 07:40:20;;;;;;;;;61.33;50.67;;;;;;;;4980757;28;11652;-72
2023/02/22 07:42:55;;;;;;;;;54.25;47.25;;;;;;;;4981815;28;11660;-71
2023/02/22 07:45:23;;;;;;;;;63.50;52.00;;;;;;;;4980013;28;11619;-71
2023/02/22 07:47:51;;;;;;;;;58.00;45.00;;;;;;;;4975038;28;11669;-71
2023/02/22 07:50:22;;;;;;;;;61.75;51.00;;;;;;;;4981968;28;11657;-71
2023/02/22 07:52:50;;;;;;;;;60.00;50.00;;;;;;;;4980131;28;11623;-70
2023/02/22 07:55:19;;;;;;;;;63.75;52.00;;;;;;;;4975926;28;11900;-71
2023/02/22 07:57:47;;;;;;;;;63.00;52.25;;;;;;;;4974400;28;11725;-70
2023/02/22 08:00:15;;;;;;;;;62.00;48.50;;;;;;;;4971807;28;11634;-71
2023/02/22 08:02:43;;;;;;;;;61.00;51.00;;;;;;;;4982978;28;11610;-70
2023/02/22 08:05:12;;;;;;;;;58.00;48.75;;;;;;;;4976349;28;12479;-71
2023/02/22 08:07:42;;;;;;;;;62.00;51.75;;;;;;;;4976620;28;11613;-71
2023/02/22 08:10:10;;;;;;;;;65.25;50.75;;;;;;;;4969386;28;11599;-72
2023/02/22 08:12:38;;;;;;;;;64.25;50.50;;;;;;;;4975224;28;11682;-72
2023/02/22 08:15:09;;;;;;;;;57.25;48.75;;;;;;;;4969916;28;11727;-71
2023/02/22 08:17:39;;;;;;;;;56.00;47.50;;;;;;;;4974199;28;11634;-72
2023/02/22 08:20:07;;;;;;;;;60.25;50.25;;;;;;;;4974701;28;11587;-73
2023/02/22 08:22:35;;;;;;;;;61.75;50.75;;;;;;;;4968322;28;11680;-70
2023/02/22 08:25:03;;;;;;;;;62.00;52.00;;;;;;;;4971428;28;11602;-70
2023/02/22 08:27:32;;;;;;;;;59.75;48.50;;;;;;;;4975200;28;11604;-71
2023/02/22 08:30:00;;;;;;;;;62.00;50.25;;;;;;;;4971093;28;11634;-71
2023/02/22 08:32:27;;;;;;;;;63.75;50.75;;;;;;;;4970378;28;11593;-71
2023/02/22 08:34:54;;;;;;;;;60.75;47.25;;;;;;;;4968370;28;11639;-71
2023/02/22 08:37:21;;;;;;;;;58.25;48.25;;;;;;;;4975800;28;11640;-70
2023/02/22 08:39:49;;;;;;;;;58.50;48.00;;;;;;;;4973923;28;11618;-72
2023/02/22 08:42:18;;;;;;;;;60.50;48.50;;;;;;;;4969727;28;12502;-71
2023/02/22 08:44:45;;;;;;;;;56.75;47.00;;;;;;;;4973347;28;11740;-71
2023/02/22 08:47:12;;;;;;;;;58.25;47.50;;;;;;;;4975977;28;12369;-72
2023/02/22 08:49:40;;;;;;;;;63.00;52.00;;;;;;;;4974240;28;11587;-72
2023/02/22 08:52:08;;;;;;;;;55.75;47.50;;;;;;;;4976972;28;12558;-72
2023/02/22 08:54:35;;;;;;;;;62.50;49.25;;;;;;;;4971431;28;11632;-72
2023/02/22 08:57:02;;;;;;;;;58.75;46.50;;;;;;;;4965724;28;11629;-72
2023/02/22 08:59:31;;;;;;;;;60.50;47.50;;;;;;;;4968384;28;11596;-71
2023/02/22 09:01:58;;;;;;;;;62.75;49.75;;;;;;;;4966672;28;11621;-72
2023/02/22 09:04:26;;;;;;;;;61.00;51.25;;;;;;;;4970548;28;12362;-71
2023/02/22 09:06:53;;;;;;;;;58.75;47.00;;;;;;;;4972945;28;11624;-72
2023/02/22 09:09:21;;;;;;;;;58.25;46.50;;;;;;;;4971453;28;11610;-71
2023/02/22 09:11:48;;;;;;;;;65.00;53.50;;;;;;;;4974938;28;11621;-71
2023/02/22 09:14:16;;;;;;;;;66.50;50.75;;;;;;;;4975807;28;11625;-71
2023/02/22 09:16:45;;;;;;;;;59.50;46.25;;;;;;;;4967281;28;12453;-71
2023/02/22 09:19:13;;;;;;;;;66.50;52.50;;;;;;;;4973209;28;11624;-71
2023/02/22 09:21:40;;;;;;;;;59.25;49.50;;;;;;;;4972324;28;11596;-71
2023/02/22 09:24:08;;;;;;;;;64.25;52.25;;;;;;;;4969575;28;12342;-71
2023/02/22 09:26:38;;;;;;;;;58.75;46.25;;;;;;;;4977784;28;11635;-71
2023/02/22 09:29:08;;;;;;;;;57.00;48.25;;;;;;;;4972333;28;11606;-70
2023/02/22 09:31:36;;;;;;;;;61.00;50.75;;;;;;;;4972590;28;11689;-71
2023/02/22 09:34:12;;;;;;;;;59.00;48.25;;;;;;;;4974924;28;13051;-70
2023/02/22 09:36:40;;;;;;;;;65.25;52.50;;;;;;;;4978473;28;12463;-72
2023/02/22 09:39:07;;;;;;;;;58.50;48.75;;;;;;;;4976312;28;11742;-71
2023/02/22 09:41:42;;;;;;;;;62.00;51.25;;;;;;;;4982013;28;12446;-71
2023/02/22 09:44:19;;;;;;;;;61.25;50.25;;;;;;;;4973878;28;11753;-71
2023/02/22 09:46:48;;;;;;;;;60.25;50.00;;;;;;;;4972784;28;11636;-71
2023/02/22 09:49:21;;;;;;;;;66.50;52.75;;;;;;;;4969141;28;11666;-70
2023/02/22 09:51:53;;;;;;;;;65.50;52.25;;;;;;;;4975920;28;11626;-71
2023/02/22 09:54:24;;;;;;;;;63.25;50.75;;;;;;;;4978362;28;11661;-71
2023/02/22 09:56:56;;;;;;;;;65.50;52.75;;;;;;;;4976526;28;11630;-70
2023/02/22 09:59:27;;;;;;;;;62.75;51.75;;;;;;;;4974524;28;11633;-70
2023/02/22 10:01:59;;;;;;;;;67.75;54.50;;;;;;;;4974579;28;11610;-71
2023/02/22 10:04:37;;;;;;;;;66.50;52.50;;;;;;;;4974640;28;11635;-72
2023/02/22 10:07:11;;;;;;;;;63.75;53.00;;;;;;;;4975808;28;12446;-72
2023/02/22 10:09:42;;;;;;;;;63.25;52.50;;;;;;;;4959605;28;11642;-71
2023/02/22 10:12:14;;;;;;;;;62.75;51.00;;;;;;;;4970669;28;11626;-71
2023/02/22 10:14:52;;;;;;;;;62.50;50.50;;;;;;;;4973521;28;11600;-71
2023/02/22 10:17:28;;;;;;;;;64.75;51.25;;;;;;;;4978634;28;12411;-70
2023/02/22 10:20:17;;;;;;;;;68.25;54.25;;;;;;;;4972964;28;11730;-70
2023/02/22 10:22:58;;;;;;;;;64.00;51.75;;;;;;;;4971833;28;11677;-70
2023/02/22 10:25:29;;;;;;;;;64.25;53.00;;;;;;;;4974957;28;11625;-71
2023/02/22 10:27:58;;;;;;;;;61.00;51.00;;;;;;;;4971538;28;11630;-70
2023/02/22 10:30:29;;;;;;;;;67.25;53.25;;;;;;;;4972369;28;11873;-70
2023/02/22 10:33:04;;;;;;;;;61.50;48.25;;;;;;;;4974722;28;11612;-69
2023/02/22 10:35:35;;;;;;;;;62.00;51.00;;;;;;;;4973016;28;11649;-70
2023/02/22 10:38:11;;;;;;;;;69.25;53.75;;;;;;;;4972869;28;12444;-70
2023/02/22 10:40:39;;;;;;;;;67.75;53.50;;;;;;;;4972277;28;11707;-72
2023/02/22 10:43:11;;;;;;;;;59.75;48.50;;;;;;;;4970932;28;11728;-71
2023/02/22 10:45:38;;;;;;;;;65.50;53.00;;;;;;;;4972914;28;11705;-70
2023/02/22 10:48:10;;;;;;;;;63.00;51.00;;;;;;;;4971450;28;11631;-71
2023/02/22 10:50:40;;;;;;;;;72.00;57.25;;;;;;;;4974594;28;11805;-71
2023/02/22 10:53:08;;;;;;;;;72.25;56.25;;;;;;;;4973991;28;11628;-71
2023/02/22 10:55:36;;;;;;;;;63.75;52.50;;;;;;;;4976026;28;12454;-72
2023/02/22 10:58:06;;;;;;;;;60.75;50.25;;;;;;;;4976716;28;11642;-70
2023/02/22 11:00:36;;;;;;;;;66.75;53.00;;;;;;;;4972816;28;11671;-71
2023/02/22 11:03:07;;;;;;;;;63.75;50.50;;;;;;;;4972280;28;11654;-71
2023/02/22 11:05:36;;;;;;;;;58.50;49.00;;;;;;;;4972109;28;11724;-74
2023/02/22 11:08:33;;;;;;;;;65.50;53.25;;;;;;;;4974210;28;11642;-70
2023/02/22 11:11:03;;;;;;;;;61.25;49.50;;;;;;;;4944089;28;11667;-70
2023/02/22 11:13:33;;;;;;;;;57.25;48.50;;;;;;;;4979121;28;11645;-70
2023/02/22 11:16:02;;;;;;;;;57.50;47.75;;;;;;;;4975471;28;11644;-69
2023/02/22 11:18:32;;;;;;;;;59.25;49.00;;;;;;;;4973586;28;11653;-71
2023/02/22 11:21:02;;;;;;;;;61.00;47.25;;;;;;;;4974520;28;11615;-69
2023/02/22 11:23:29;;;;;;;;;60.00;49.00;;;;;;;;4971020;28;11603;-72
2023/02/22 11:26:19;;;;;;;;;61.50;49.25;;;;;;;;4972320;28;11612;-73
2023/02/22 11:28:49;;;;;;;;;60.50;50.50;;;;;;;;4978221;28;11649;-71
2023/02/22 11:31:19;;;;;;;;;64.50;50.50;;;;;;;;4979256;28;11605;-72
2023/02/22 11:33:51;;;;;;;;;63.25;50.75;;;;;;;;4974581;28;11732;-70
2023/02/22 11:36:31;;;;;;;;;59.50;50.00;;;;;;;;4977069;28;11628;-73
2023/02/22 11:38:59;;;;;;;;;66.25;51.50;;;;;;;;4978190;28;11654;-72
2023/02/22 11:41:29;;;;;;;;;60.50;51.50;;;;;;;;4975688;28;11617;-71
2023/02/22 11:44:14;;;;;;;;;54.00;45.00;;;;;;;;4977048;28;11716;-72
2023/02/22 11:46:43;;;;;;;;;64.00;51.75;;;;;;;;4974698;28;12413;-72
2023/02/22 11:49:12;;;;;;;;;68.75;55.00;;;;;;;;4975881;28;11637;-73
2023/02/22 11:51:49;;;;;;;;;63.00;50.75;;;;;;;;4978910;28;11736;-71
2023/02/22 11:54:30;;;;;;;;;60.75;49.75;;;;;;;;4972725;28;11643;-71
2023/02/22 11:57:08;;;;;;;;;61.00;50.00;;;;;;;;4976191;28;11626;-71
2023/02/22 11:59:40;;;;;;;;;61.50;51.25;;;;;;;;4979809;28;11749;-72
2023/02/22 12:02:28;;;;;;;;;60.75;50.50;;;;;;;;4975498;28;12423;-72
2023/02/22 12:05:02;;;;;;;;;62.50;52.75;;;;;;;;4971013;28;11757;-73
2023/02/22 12:07:42;;;;;;;;;68.25;54.25;;;;;;;;4978380;28;11631;-71
2023/02/22 12:10:20;;;;;;;;;63.50;51.50;;;;;;;;4977772;28;11665;-70
2023/02/22 12:13:01;;;;;;;;;56.75;47.75;;;;;;;;4978922;28;11625;-70
2023/02/22 12:15:32;;;;;;;;;66.50;53.00;;;;;;;;4982880;28;11596;-69
2023/02/22 12:18:05;;;;;;;;;64.25;54.00;;;;;;;;4983156;28;11729;-71
2023/02/22 12:20:40;;;;;;;;;66.75;54.00;;;;;;;;4978463;28;11711;-72
2023/02/22 12:23:18;;;;;;;;;66.00;52.50;;;;;;;;4973936;28;11819;-71
2023/02/22 12:25:57;;;;;;;;;64.50;54.50;;;;;;;;4973493;28;11194;-71
2023/02/22 12:28:31;;;;;;;;;66.00;53.75;;;;;;;;4977519;28;11605;-70
2023/02/22 12:31:10;;;;;;;;;61.50;49.75;;;;;;;;4975023;28;11576;-70
2023/02/22 12:33:45;;;;;;;;;62.25;51.00;;;;;;;;4971659;28;11663;-71
2023/02/22 12:36:19;;;;;;;;;56.75;47.75;;;;;;;;4974541;28;11613;-71
2023/02/22 12:38:52;;;;;;;;;52.25;43.25;;;;;;;;4972225;28;11634;-70
2023/02/22 12:41:27;;;;;;;;;55.25;44.25;;;;;;;;4970889;28;11682;-72
2023/02/22 12:44:00;;;;;;;;;56.50;46.75;;;;;;;;4972863;28;11689;-72
2023/02/22 12:46:31;;;;;;;;;48.75;41.25;;;;;;;;4977347;28;11624;-70
2023/02/22 12:49:05;;;;;;;;;51.50;43.25;;;;;;;;4957396;28;11634;-70
2023/02/22 12:51:40;;;;;;;;;49.25;39.50;;;;;;;;4977676;28;11598;-70
2023/02/22 12:54:13;;;;;;;;;47.50;40.50;;;;;;;;4973281;28;11551;-72
2023/02/22 12:56:45;;;;;;;;;48.00;40.00;;;;;;;;4976730;28;11580;-71
2023/02/22 12:59:19;;;;;;;;;51.75;42.00;;;;;;;;4975965;28;11573;-71
2023/02/22 13:01:52;;;;;;;;;59.25;46.00;;;;;;;;4972690;28;12309;-70
2023/02/22 13:04:21;;;;;;;;;44.00;39.50;;;;;;;;4970830;28;11702;-71
2023/02/22 13:06:56;;;;;;;;;52.25;42.00;;;;;;;;4972238;28;11575;-72
2023/02/22 13:09:58;;;;;;;;;48.75;43.00;;;;;;;;4974877;28;12363;-71
2023/02/22 13:12:34;;;;;;;;;43.25;38.25;;;;;;;;4977855;28;11548;-72
2023/02/22 13:15:11;;;;;;;;;55.00;43.00;;;;;;;;4968045;28;11579;-72
2023/02/22 13:17:43;;;;;;;;;54.00;43.25;;;;;;;;4970502;28;11573;-71
2023/02/22 13:20:17;;;;;;;;;51.50;43.00;;;;;;;;4979283;28;11711;-71
2023/02/22 13:22:50;;;;;;;;;53.00;42.25;;;;;;;;4975773;28;11561;-70
2023/02/22 13:25:22;;;;;;;;;50.75;40.75;;;;;;;;4975023;28;11565;-70
2023/02/22 13:27:53;;;;;;;;;51.75;40.75;;;;;;;;4973966;28;11534;-71
2023/02/22 13:30:24;;;;;;;;;42.25;36.75;;;;;;;;4974532;28;12544;-71
2023/02/22 13:33:02;;;;;;;;;42.50;37.75;;;;;;;;4978124;28;11562;-70
2023/02/22 13:35:40;;;;;;;;;42.50;37.50;;;;;;;;4975523;28;11710;-70
2023/02/22 13:38:41;;;;;;;;;43.75;37.50;;;;;;;;4978105;28;11605;-71
2023/02/22 13:41:24;;;;;;;;;36.50;34.25;;;;;;;;4977398;28;11561;-71
2023/02/22 13:44:26;;;;;;;;;43.50;36.25;;;;;;;;4976945;28;11576;-70
2023/02/22 13:47:24;;;;;;;;;36.50;32.00;;;;;;;;4978024;28;11580;-70
2023/02/22 13:50:26;;;;;;;;;42.75;39.00;;;;;;;;4964888;28;11569;-71
2023/02/22 13:52:54;;;;;;;;;47.25;41.25;;;;;;;;4964234;28;12398;-70
2023/02/22 13:55:26;;;;;;;;;47.00;41.50;;;;;;;;4977748;28;11554;-70
2023/02/22 13:58:01;;;;;;;;;52.75;40.75;;;;;;;;4972059;28;11828;-71
2023/02/22 14:00:47;;;;;;;;;46.25;39.25;;;;;;;;4969849;28;11965;-70
2023/02/22 14:03:40;;;;;;;;;47.75;41.25;;;;;;;;4974323;28;11684;-70
2023/02/22 14:06:10;;;;;;;;;52.50;42.25;;;;;;;;4970274;28;11642;-71
2023/02/22 14:08:42;;;;;;;;;41.00;36.25;;;;;;;;4973385;28;11626;-70
2023/02/22 14:11:55;;;;;;;;;49.75;40.25;;;;;;;;4974652;28;11543;-69
2023/02/22 14:14:23;;;;;;;;;50.75;41.75;;;;;;;;4969837;28;11569;-71
2023/02/22 14:17:16;;;;;;;;;54.25;43.00;;;;;;;;4975033;28;12471;-70
2023/02/22 14:20:03;;;;;;;;;56.00;45.75;;;;;;;;4970259;28;11610;-70
2023/02/22 14:22:30;;;;;;;;;54.00;43.75;;;;;;;;4973485;28;11653;-70
2023/02/22 14:24:58;;;;;;;;;53.25;40.75;;;;;;;;4968048;28;11653;-70
2023/02/22 14:27:26;;;;;;;;;56.00;47.00;;;;;;;;4974095;28;11604;-70
2023/02/22 14:29:59;;;;;;;;;55.00;46.25;;;;;;;;4973200;28;12665;-70
2023/02/22 14:32:31;;;;;;;;;52.00;43.25;;;;;;;;4968176;28;12254;-70
2023/02/22 14:35:01;;;;;;;;;49.50;41.00;;;;;;;;4974714;28;11531;-70
2023/02/22 14:37:30;;;;;;;;;51.00;43.25;;;;;;;;4975537;28;11603;-70
2023/02/22 14:40:11;;;;;;;;;50.00;41.00;;;;;;;;4970051;28;11559;-70
2023/02/22 14:42:42;;;;;;;;;53.50;43.75;;;;;;;;4971229;28;11554;-71